NFA55M EKOD-EKKA
Flight info
| Callsign | NFA55M |
|---|---|
| Flight time | 0h 19m |
| Altitude | 18000 |
| Route | ESIRU DCT TESPI DCT LUTUS DCT RIKSU |
| Aircraft | C750/M-SBDE3FGHRWXY/S |
Departure
| Time | 2026-04-28 18:42 |
|---|---|
| Airport | Odense Hans Christian Andersen Airport (EKOD) |
Arrival
| Time | 2026-04-28 19:01 |
|---|---|
| Airport | Midtjyllands Airport / Air Base Karup (EKKA) |
| Time | Latitude | Longitude | Altitude | Speed | Heading |
|---|---|---|---|---|---|
| 2026-04-28 18:22 | 55.47338 | 10.32892 | 60 ft | 0 kts | 6° |
| 2026-04-28 18:38 | 55.47343 | 10.32890 | 54 ft | 2 kts | 344° |
| 2026-04-28 18:39 | 55.47355 | 10.32859 | 59 ft | 4 kts | 296° |
| 2026-04-28 18:39 | 55.47389 | 10.32733 | 56 ft | 13 kts | 295° |
| 2026-04-28 18:39 | 55.47433 | 10.32634 | 59 ft | 18 kts | 316° |
| 2026-04-28 18:39 | 55.47409 | 10.32323 | 59 ft | 26 kts | 237° |
| 2026-04-28 18:40 | 55.47304 | 10.32000 | 52 ft | 35 kts | 240° |
| 2026-04-28 18:40 | 55.47217 | 10.31730 | 52 ft | 40 kts | 240° |
| 2026-04-28 18:40 | 55.47116 | 10.31411 | 55 ft | 24 kts | 250° |
| 2026-04-28 18:40 | 55.47086 | 10.31366 | 55 ft | 4 kts | 56° |
| 2026-04-28 18:41 | 55.47116 | 10.31432 | 54 ft | 5 kts | 60° |
| 2026-04-28 18:41 | 55.47118 | 10.31437 | 54 ft | 0 kts | 60° |
| 2026-04-28 18:41 | 55.47149 | 10.31533 | 53 ft | 41 kts | 60° |
| 2026-04-28 18:41 | 55.47481 | 10.32538 | 131 ft | 128 kts | 59° |
| 2026-04-28 18:42 | 55.47964 | 10.33870 | 810 ft | 135 kts | 43° |
| 2026-04-28 18:42 | 55.48868 | 10.34452 | 1444 ft | 142 kts | 14° |
| 2026-04-28 18:42 | 55.49750 | 10.35262 | 2229 ft | 146 kts | 33° |
| 2026-04-28 18:42 | 55.50586 | 10.36422 | 2837 ft | 164 kts | 35° |
| 2026-04-28 18:43 | 55.51542 | 10.37789 | 3282 ft | 190 kts | 36° |
| 2026-04-28 18:43 | 55.52624 | 10.39372 | 3762 ft | 210 kts | 37° |
| 2026-04-28 18:43 | 55.53819 | 10.41118 | 4048 ft | 234 kts | 37° |
| 2026-04-28 18:43 | 55.55065 | 10.42947 | 4003 ft | 233 kts | 37° |
| 2026-04-28 18:44 | 55.56330 | 10.44798 | 4039 ft | 244 kts | 37° |
| 2026-04-28 18:44 | 55.58903 | 10.48575 | 6492 ft | 240 kts | 37° |
| 2026-04-28 18:44 | 55.60200 | 10.50468 | 7524 ft | 246 kts | 37° |
| 2026-04-28 18:45 | 55.61526 | 10.52420 | 8702 ft | 250 kts | 37° |
| 2026-04-28 18:45 | 55.63056 | 10.53894 | 9626 ft | 257 kts | 12° |
| 2026-04-28 18:45 | 55.64855 | 10.53998 | 10524 ft | 267 kts | 355° |
| 2026-04-28 18:45 | 55.66695 | 10.52849 | 10765 ft | 300 kts | 332° |
| 2026-04-28 18:46 | 55.68377 | 10.50357 | 10958 ft | 329 kts | 319° |
| 2026-04-28 18:46 | 55.69986 | 10.47451 | 11816 ft | 330 kts | 317° |
| 2026-04-28 18:46 | 55.71647 | 10.44602 | 12630 ft | 334 kts | 320° |
| 2026-04-28 18:46 | 55.73374 | 10.41815 | 13416 ft | 338 kts | 321° |
| 2026-04-28 18:47 | 55.75106 | 10.38956 | 14193 ft | 343 kts | 319° |
| 2026-04-28 18:47 | 55.76838 | 10.36008 | 14899 ft | 346 kts | 319° |
| 2026-04-28 18:47 | 55.78588 | 10.33048 | 15610 ft | 349 kts | 320° |
| 2026-04-28 18:47 | 55.80364 | 10.30080 | 16333 ft | 352 kts | 320° |
| 2026-04-28 18:48 | 55.82138 | 10.27101 | 16691 ft | 342 kts | 320° |
| 2026-04-28 18:48 | 55.83829 | 10.24238 | 15363 ft | 337 kts | 320° |
| 2026-04-28 18:48 | 55.85629 | 10.21223 | 14044 ft | 376 kts | 319° |
| 2026-04-28 18:48 | 55.87515 | 10.18035 | 13423 ft | 360 kts | 319° |
| 2026-04-28 18:49 | 55.89299 | 10.14986 | 13425 ft | 355 kts | 319° |
| 2026-04-28 18:49 | 55.90477 | 10.12983 | 13112 ft | 348 kts | 319° |
| 2026-04-28 18:49 | 55.92731 | 10.09176 | 12473 ft | 314 kts | 320° |
| 2026-04-28 18:49 | 55.94257 | 10.06589 | 12113 ft | 293 kts | 320° |
| 2026-04-28 18:50 | 55.95693 | 10.04144 | 11739 ft | 280 kts | 320° |
| 2026-04-28 18:50 | 55.97089 | 10.01771 | 11378 ft | 275 kts | 320° |
| 2026-04-28 18:50 | 55.98470 | 9.99422 | 11014 ft | 273 kts | 320° |
| 2026-04-28 18:50 | 55.99840 | 9.97085 | 10661 ft | 272 kts | 320° |
| 2026-04-28 18:51 | 56.01200 | 9.94763 | 10308 ft | 270 kts | 320° |
| 2026-04-28 18:51 | 56.02554 | 9.92448 | 9933 ft | 269 kts | 320° |
| 2026-04-28 18:51 | 56.03900 | 9.90144 | 9572 ft | 268 kts | 320° |
| 2026-04-28 18:51 | 56.05244 | 9.87842 | 9222 ft | 267 kts | 320° |
| 2026-04-28 18:52 | 56.06582 | 9.85552 | 8871 ft | 266 kts | 320° |
| 2026-04-28 18:52 | 56.07916 | 9.83265 | 8524 ft | 265 kts | 320° |
| 2026-04-28 18:52 | 56.09245 | 9.80979 | 8173 ft | 264 kts | 320° |
| 2026-04-28 18:52 | 56.10569 | 9.78703 | 7826 ft | 263 kts | 320° |
| 2026-04-28 18:53 | 56.11886 | 9.76433 | 7490 ft | 262 kts | 320° |
| 2026-04-28 18:53 | 56.13199 | 9.74171 | 7139 ft | 261 kts | 320° |
| 2026-04-28 18:53 | 56.14507 | 9.71916 | 6779 ft | 261 kts | 319° |
| 2026-04-28 18:53 | 56.15823 | 9.69639 | 6226 ft | 266 kts | 319° |
| 2026-04-28 18:54 | 56.17143 | 9.67358 | 5679 ft | 259 kts | 318° |
| 2026-04-28 18:54 | 56.18428 | 9.65139 | 5317 ft | 255 kts | 318° |
| 2026-04-28 18:54 | 56.19700 | 9.62939 | 4976 ft | 253 kts | 318° |
| 2026-04-28 18:54 | 56.20969 | 9.60742 | 4641 ft | 253 kts | 318° |
| 2026-04-28 18:55 | 56.22230 | 9.58554 | 4308 ft | 252 kts | 318° |
| 2026-04-28 18:55 | 56.23062 | 9.57108 | 4088 ft | 251 kts | 317° |
| 2026-04-28 18:55 | 56.24726 | 9.54215 | 3653 ft | 251 kts | 317° |
| 2026-04-28 18:55 | 56.25993 | 9.52009 | 3308 ft | 249 kts | 317° |
| 2026-04-28 18:56 | 56.27220 | 9.49872 | 2981 ft | 248 kts | 317° |
| 2026-04-28 18:56 | 56.28437 | 9.47747 | 2655 ft | 243 kts | 318° |
| 2026-04-28 18:56 | 56.29536 | 9.45445 | 2283 ft | 243 kts | 302° |
| 2026-04-28 18:56 | 56.29914 | 9.42683 | 2247 ft | 215 kts | 277° |
| 2026-04-28 18:57 | 56.29915 | 9.39991 | 2301 ft | 215 kts | 272° |
| 2026-04-28 18:57 | 56.29893 | 9.37309 | 2289 ft | 214 kts | 272° |
| 2026-04-28 18:57 | 56.29877 | 9.34632 | 2291 ft | 214 kts | 273° |
| 2026-04-28 18:57 | 56.29864 | 9.31943 | 2297 ft | 215 kts | 273° |
| 2026-04-28 18:58 | 56.29846 | 9.29238 | 2076 ft | 217 kts | 272° |
| 2026-04-28 18:58 | 56.29827 | 9.26539 | 1768 ft | 214 kts | 273° |
| 2026-04-28 18:58 | 56.29719 | 9.23899 | 1582 ft | 210 kts | 259° |
| 2026-04-28 18:58 | 56.29002 | 9.21807 | 1447 ft | 182 kts | 230° |
| 2026-04-28 18:59 | 56.28112 | 9.20200 | 1355 ft | 179 kts | 232° |
| 2026-04-28 18:59 | 56.27496 | 9.18279 | 1194 ft | 176 kts | 258° |
| 2026-04-28 18:59 | 56.27406 | 9.16138 | 969 ft | 168 kts | 276° |
| 2026-04-28 18:59 | 56.27574 | 9.14102 | 780 ft | 155 kts | 284° |
| 2026-04-28 19:00 | 56.27767 | 9.12389 | 631 ft | 129 kts | 285° |
| 2026-04-28 19:00 | 56.27955 | 9.10860 | 540 ft | 121 kts | 287° |
| 2026-04-28 19:00 | 56.28442 | 9.09767 | 515 ft | 110 kts | 345° |
| 2026-04-28 19:00 | 56.29235 | 9.09886 | 347 ft | 120 kts | 19° |
| 2026-04-28 19:01 | 56.29933 | 9.10679 | 176 ft | 106 kts | 29° |
| 2026-04-28 19:01 | 56.30340 | 9.11174 | 175 ft | 47 kts | 35° |
| 2026-04-28 19:01 | 56.30512 | 9.11388 | 175 ft | 19 kts | 33° |
| 2026-04-28 19:01 | 56.30602 | 9.11537 | 175 ft | 16 kts | 77° |
| 2026-04-28 19:02 | 56.30663 | 9.11683 | 175 ft | 15 kts | 56° |
| 2026-04-28 19:02 | 56.30723 | 9.11853 | 175 ft | 17 kts | 58° |
| 2026-04-28 19:02 | 56.30799 | 9.11974 | 175 ft | 13 kts | 341° |
| 2026-04-28 19:02 | 56.30879 | 9.11886 | 175 ft | 14 kts | 322° |
| 2026-04-28 19:03 | 56.30967 | 9.11797 | 175 ft | 15 kts | 337° |
| 2026-04-28 19:03 | 56.31049 | 9.11799 | 175 ft | 12 kts | 57° |
| 2026-04-28 19:03 | 56.31065 | 9.11933 | 175 ft | 10 kts | 126° |
| 2026-04-28 19:03 | 56.31032 | 9.11918 | 175 ft | 6 kts | 269° |
| 2026-04-28 19:04 | 56.31033 | 9.11909 | 175 ft | 0 kts | 275° |